KAKH

Gastonia Municipal Airport

Gastonia, North Carolina, USA
METAR KAKH 151254Z AUTO 01004KT 10SM CLR 01/M04 A2998 RMK AO2 SLP157 T00111044
Observed Flight Rules
Dec-15 @ 12:54 UTC (an hour ago) Visual Flight Rules
Wind Visibility Clouds
10° at 4 knots 10 miles
  • Clear skies
Temperatures Readings
Current 1°C / 34°F
Dewpoint -4°C / 25°F
Humidity 70%
Altimeter 29.98" Hg
Pressure 1015.7 hPa
Elevation 243
METAR KAKH 151254Z AUTO 01004KT 10SM CLR 01/M04 A2998 RMK AO2 SLP157 T00111044
Observed Flight Rules
Dec-15 @ 12:54 UTC
(an hour ago)
VFR
Wind Visibility
10° at 4 knots 10 miles
Clouds
  • Clear skies
Temperature Dewpoint
1°C / 34°F -4°C / 25°F
Humidity Altimeter Pressure
70% 29.98" Hg 1015.7 hPa